To NAV CANADA Home Page Login to a new session Search on AWWS site Feedback and Comments Disclaimer Vers la page française équivalente Tips FAQ What's new on the site To the Forecasts and Observations / NOTAM section To "File a Flight Plan" website Publications and other links Update of the User's profile FIC Telephone Numbers My Weather Data Folder Route Weather Data Regional Weather Data Local Weather Data To the Forecasts and Observations / NOTAM section
Request Generated 02/07/2016 at 08:18:37 UTC . Weather information available at that time is displayed.

METAR/TAF

GRANDE PRAIRIE/AB    

METAR CYQU 070800Z 25015KT 25SM SKC M03/M10 A3021 RMK SLP265=
METAR CYQU 070700Z 25011KT 25SM SKC M05/M10 A3018 RMK SLP259=
METAR CYQU 070600Z 25010KT 25SM SKC M03/M09 A3016 RMK SLP250=

TAF CYQU 070638Z 0707/0719 25010KT P6SM SKC
BECMG 0714/0716 25005KT BKN200
RMK NXT FCST BY 071300Z=
Your time UTC time
Weather data provided by Environment Canada and NAV CANADA